Time;durP1;ratioP1;P1;durP2;ratioP2;P2;SDS_P1;SDS_P2;PMS_P1;PMS_P2;Temp;Humidity;BMP_temperature;BMP_pressure;BME280_temperature;BME280_humidity;BME280_pressure;Samples;Min_cycle;Max_cycle;Signal;HPM_P1;HPM_P2
2021/01/24 00:00:14;;;;;;;9.27;5.30;;;;;;;0.94;90.37;96761.84;5053020;28;20056;-80
2021/01/24 00:02:41;;;;;;;7.23;4.57;;;;;;;0.87;90.06;96748.34;5054466;28;20048;-80
2021/01/24 00:05:08;;;;;;;8.17;4.57;;;;;;;1.00;90.77;96769.94;5053657;28;20424;-81
2021/01/24 00:07:35;;;;;;;7.25;4.47;;;;;;;1.00;90.83;96771.81;5053285;28;20049;-81
2021/01/24 00:10:01;;;;;;;6.63;4.30;;;;;;;0.82;90.91;96737.38;5053929;28;20049;-80
2021/01/24 00:12:27;;;;;;;7.03;4.30;;;;;;;0.89;90.37;96759.72;5053598;28;20497;-80
2021/01/24 00:14:54;;;;;;;5.87;3.80;;;;;;;0.90;90.01;96764.03;5052857;28;20057;-81
2021/01/24 00:17:21;;;;;;;6.77;3.77;;;;;;;0.84;90.14;96762.94;5054101;28;20041;-80
2021/01/24 00:19:47;;;;;;;6.03;3.93;;;;;;;0.91;90.36;96764.88;5053939;28;20559;-81
2021/01/24 00:22:13;;;;;;;8.37;4.07;;;;;;;0.93;90.77;96777.03;5053833;28;20048;-80
2021/01/24 00:24:39;;;;;;;7.20;4.00;;;;;;;0.90;90.77;96768.56;5053446;28;20056;-81
2021/01/24 00:27:06;;;;;;;6.07;3.93;;;;;;;0.83;90.95;96761.28;5053593;28;20061;-81
2021/01/24 00:29:33;;;;;;;5.63;3.47;;;;;;;0.82;90.82;96780.19;5053542;28;20493;-81
2021/01/24 00:32:00;;;;;;;5.50;3.43;;;;;;;0.82;90.09;96775.66;5024686;28;839283;-80
2021/01/24 00:34:26;;;;;;;4.33;3.57;;;;;;;0.77;91.01;96775.38;5054507;28;20106;-80
2021/01/24 00:36:53;;;;;;;8.80;4.00;;;;;;;0.64;90.53;96767.94;5054541;28;20045;-81
2021/01/24 00:39:19;;;;;;;4.50;2.93;;;;;;;0.75;90.74;96773.88;5053203;28;20075;-81
2021/01/24 00:41:45;;;;;;;5.60;3.73;;;;;;;0.78;91.03;96773.53;5054853;28;20102;-80
2021/01/24 00:44:12;;;;;;;4.33;3.63;;;;;;;0.82;90.96;96762.28;5053524;28;20102;-80
2021/01/24 00:46:38;;;;;;;5.33;3.40;;;;;;;0.83;89.95;96747.91;5053988;28;20049;-80
2021/01/24 00:49:05;;;;;;;4.23;3.03;;;;;;;0.81;90.37;96762.47;5053063;28;20053;-80
2021/01/24 00:51:32;;;;;;;9.27;3.63;;;;;;;0.66;90.46;96755.25;5053855;28;20053;-80
2021/01/24 00:53:58;;;;;;;6.60;3.47;;;;;;;0.78;89.46;96760.16;5054243;28;20045;-80
2021/01/24 00:56:25;;;;;;;6.97;4.33;;;;;;;0.72;89.84;96763.56;5054162;28;20136;-80
2021/01/24 00:58:53;;;;;;;5.07;3.77;;;;;;;0.79;89.48;96759.97;5053429;28;20444;-80
2021/01/24 01:01:22;;;;;;;5.57;4.20;;;;;;;0.93;90.06;96768.19;5053775;28;20045;-80
2021/01/24 01:03:48;;;;;;;4.77;3.03;;;;;;;0.92;89.23;96758.50;5053902;28;20141;-80
2021/01/24 01:06:15;;;;;;;4.97;3.50;;;;;;;0.88;89.73;96771.41;5052536;28;20053;-80
2021/01/24 01:08:41;;;;;;;8.10;3.40;;;;;;;0.64;90.00;96743.06;5053695;28;20049;-80
2021/01/24 01:11:08;;;;;;;4.57;3.43;;;;;;;0.63;90.78;96746.75;5052743;28;20056;-79
2021/01/24 01:13:34;;;;;;;6.77;3.43;;;;;;;0.87;90.26;96764.41;5052539;28;20049;-79
2021/01/24 01:16:01;;;;;;;5.97;3.87;;;;;;;0.66;89.40;96720.50;5052483;28;20060;-79
2021/01/24 01:18:28;;;;;;;6.47;4.30;;;;;;;0.71;89.47;96741.34;5052498;28;20044;-79
2021/01/24 01:20:56;;;;;;;8.07;3.60;;;;;;;0.60;89.53;96731.88;5052674;28;20053;-80
2021/01/24 01:23:24;;;;;;;9.13;4.23;;;;;;;0.62;89.65;96732.56;5053125;28;20045;-80
2021/01/24 01:25:54;;;;;;;6.50;4.20;;;;;;;0.58;90.22;96752.63;5053273;28;20052;-80
2021/01/24 01:28:25;;;;;;;6.67;4.00;;;;;;;0.56;90.62;96754.69;5054009;28;20447;-80
2021/01/24 01:30:51;;;;;;;6.97;4.43;;;;;;;0.69;90.20;96768.25;5052996;28;20045;-79
2021/01/24 01:33:18;;;;;;;5.57;4.23;;;;;;;0.53;90.33;96744.34;5053251;28;20045;-80
2021/01/24 01:35:48;;;;;;;6.30;4.17;;;;;;;0.38;91.31;96743.44;5053458;28;20049;-80
2021/01/24 01:38:14;;;;;;;;;;;;;;;0.68;90.52;96761.25;5054061;28;20052;-79
2021/01/24 01:40:41;;;;;;;6.63;4.57;;;;;;;0.67;90.97;96756.91;5052802;28;19920;-79
2021/01/24 01:43:07;;;;;;;7.70;4.50;;;;;;;0.67;90.75;96756.06;5053036;28;20041;-80
2021/01/24 01:45:34;;;;;;;7.43;4.57;;;;;;;0.71;90.72;96744.00;5052715;28;20056;-80
2021/01/24 01:48:00;;;;;;;6.90;4.50;;;;;;;0.82;90.31;96756.09;5053372;28;20049;-80
2021/01/24 01:50:27;;;;;;;6.00;3.83;;;;;;;0.69;90.58;96741.53;5052502;28;20129;-80
2021/01/24 01:52:54;;;;;;;8.63;4.87;;;;;;;0.72;90.58;96745.66;5053319;28;20064;-80
2021/01/24 01:55:20;;;;;;;6.93;4.63;;;;;;;0.76;90.60;96743.47;5052859;28;20045;-80
2021/01/24 01:57:56;;;;;;;9.03;5.17;;;;;;;0.78;90.85;96752.94;5052939;28;20048;-80
2021/01/24 02:00:23;;;;;;;7.23;4.30;;;;;;;0.62;91.37;96721.84;5052427;28;20132;-80
2021/01/24 02:03:07;;;;;;;6.03;4.27;;;;;;;0.84;91.20;96757.59;5053132;28;20051;-79
2021/01/24 02:05:41;;;;;;;7.30;4.00;;;;;;;0.70;91.27;96716.41;5052775;28;20119;-80
2021/01/24 02:08:13;;;;;;;4.37;3.20;;;;;;;0.73;91.76;96738.47;5052874;28;20057;-80
2021/01/24 02:10:45;;;;;;;4.20;3.07;;;;;;;0.66;91.51;96730.34;5052801;28;20501;-80
2021/01/24 02:13:27;;;;;;;2.40;2.03;;;;;;;0.74;91.42;96740.97;5048777;28;20053;-80
2021/01/24 02:15:59;;;;;;;3.97;2.43;;;;;;;0.69;91.77;96721.94;5032579;28;20053;-80
2021/01/24 02:18:27;;;;;;;4.60;2.57;;;;;;;0.88;91.70;96747.34;5051944;28;20378;-80
2021/01/24 02:21:06;;;;;;;3.20;2.70;;;;;;;0.82;91.71;96748.91;5052937;28;20118;-80
2021/01/24 02:23:33;;;;;;;3.10;2.53;;;;;;;1.00;91.23;96788.69;5052455;28;20049;-81
2021/01/24 02:26:07;;;;;;;4.47;2.20;;;;;;;0.89;90.87;96773.09;5052230;28;20053;-80
2021/01/24 02:28:54;;;;;;;1.40;1.30;;;;;;;1.05;89.60;96812.22;5035134;28;20041;-79
2021/01/24 02:31:24;;;;;;;3.83;1.30;;;;;;;0.80;89.94;96783.03;5052909;28;20052;-79
2021/01/24 02:33:52;;;;;;;1.20;1.10;;;;;;;0.85;89.93;96819.94;5052280;28;20447;-81
2021/01/24 02:36:21;;;;;;;1.60;1.30;;;;;;;0.73;90.00;96806.16;5052626;28;20060;-82
2021/01/24 02:39:06;;;;;;;1.40;1.30;;;;;;;0.88;89.89;96840.97;5052993;28;20481;-80
2021/01/24 02:41:34;;;;;;;0.90;0.90;;;;;;;0.68;90.05;96832.63;5052392;28;20053;-81
2021/01/24 02:44:03;;;;;;;0.73;0.73;;;;;;;0.84;89.53;96859.25;5049255;28;20037;-80
2021/01/24 02:46:31;;;;;;;0.77;0.77;;;;;;;0.55;89.34;96841.22;5052165;28;20184;-81
2021/01/24 02:48:58;;;;;;;0.70;0.70;;;;;;;0.57;89.40;96857.91;5052563;28;20626;-80
2021/01/24 02:51:24;;;;;;;0.60;0.60;;;;;;;0.38;89.66;96863.72;5052255;28;20053;-80
2021/01/24 02:53:53;;;;;;;1.00;1.00;;;;;;;0.44;90.37;96885.25;5052133;28;20052;-80
2021/01/24 02:56:21;;;;;;;0.67;0.67;;;;;;;0.40;90.53;96894.63;5051683;28;20064;-80
2021/01/24 02:58:49;;;;;;;1.57;1.37;;;;;;;0.34;90.06;96882.78;5052812;28;20059;-81
2021/01/24 03:01:16;;;;;;;1.13;1.07;;;;;;;0.35;90.40;96887.16;5052945;28;20049;-81
2021/01/24 03:03:43;;;;;;;1.27;1.17;;;;;;;0.25;89.12;96880.38;5052360;28;20409;-79
2021/01/24 03:06:11;;;;;;;1.57;1.30;;;;;;;0.41;89.25;96914.19;5052850;28;20099;-80
2021/01/24 03:08:38;;;;;;;1.73;1.17;;;;;;;0.46;88.73;96923.31;5052855;28;20083;-79
2021/01/24 03:11:06;;;;;;;1.00;1.00;;;;;;;0.35;88.78;96899.69;5054189;28;20456;-79
2021/01/24 03:13:40;;;;;;;1.30;1.20;;;;;;;0.30;87.57;96897.53;5056322;28;20455;-79
2021/01/24 03:16:07;;;;;;;1.20;1.10;;;;;;;0.52;87.28;96936.00;5056121;28;20451;-80
2021/01/24 03:18:38;;;;;;;1.47;1.37;;;;;;;0.59;86.46;96944.16;5056446;28;20161;-78
2021/01/24 03:21:09;;;;;;;1.40;1.30;;;;;;;0.56;86.23;96938.31;5056317;28;20091;-79
2021/01/24 03:23:36;;;;;;;2.53;1.80;;;;;;;0.51;86.54;96936.16;5056395;28;20048;-79
2021/01/24 03:26:05;;;;;;;2.17;1.97;;;;;;;0.51;86.82;96937.03;5056433;28;20564;-80
2021/01/24 03:28:32;;;;;;;3.70;2.03;;;;;;;0.61;86.68;96963.53;5055892;28;20485;-79
2021/01/24 03:30:58;;;;;;;1.50;1.37;;;;;;;0.61;84.89;96973.38;5056032;28;20057;-79
2021/01/24 03:33:25;;;;;;;2.27;1.87;;;;;;;0.54;85.41;96970.56;5055741;28;20045;-80
2021/01/24 03:35:51;;;;;;;2.17;1.97;;;;;;;0.39;85.02;96958.97;5055733;28;20052;-79
2021/01/24 03:38:18;;;;;;;2.43;2.10;;;;;;;0.39;83.57;96973.16;5035987;28;20050;-80
2021/01/24 03:40:45;;;;;;;3.67;2.50;;;;;;;0.61;85.09;96998.28;5046920;28;20057;-80
2021/01/24 03:43:11;;;;;;;4.67;2.30;;;;;;;0.50;83.56;96996.84;5055743;28;20041;-80
2021/01/24 03:45:37;;;;;;;5.63;3.00;;;;;;;0.57;84.98;97006.84;5055417;28;20049;-80
2021/01/24 03:48:04;;;;;;;3.70;2.70;;;;;;;0.38;82.90;96973.31;5055840;28;20056;-80
2021/01/24 03:50:30;;;;;;;3.97;2.90;;;;;;;0.45;82.77;97001.88;5055636;28;20064;-80
2021/01/24 03:52:57;;;;;;;5.03;2.37;;;;;;;0.39;81.27;97007.91;5055673;28;20068;-79
2021/01/24 03:55:24;;;;;;;3.27;2.33;;;;;;;0.47;80.33;97007.06;5055134;28;20049;-80
2021/01/24 03:57:50;;;;;;;3.23;2.80;;;;;;;0.35;80.66;96990.56;5055218;28;20045;-78
2021/01/24 04:00:17;;;;;;;5.97;2.97;;;;;;;0.57;80.85;97037.06;5055533;28;20049;-79
2021/01/24 04:02:43;;;;;;;4.00;2.60;;;;;;;0.40;80.29;97012.25;5055315;28;20057;-80
2021/01/24 04:05:13;;;;;;;6.17;3.37;;;;;;;0.49;79.64;97037.13;5054773;28;20508;-79
2021/01/24 04:07:39;;;;;;;5.28;3.08;;;;;;;0.57;78.82;97041.59;5055575;28;20049;-79
2021/01/24 04:10:07;;;;;;;7.07;4.00;;;;;;;0.50;78.96;97034.25;5055271;28;20071;-79
2021/01/24 04:12:35;;;;;;;5.43;3.13;;;;;;;0.43;78.74;97035.97;5055519;28;20460;-80
2021/01/24 04:15:01;;;;;;;12.07;4.43;;;;;;;0.47;79.55;97050.66;5054706;28;20057;-79
2021/01/24 04:17:27;;;;;;;5.47;3.43;;;;;;;0.48;78.50;97046.97;5055149;28;20099;-80
2021/01/24 04:19:54;;;;;;;5.03;2.90;;;;;;;0.50;78.03;97052.16;5055425;28;20099;-79
2021/01/24 04:22:20;;;;;;;4.37;2.90;;;;;;;0.50;77.30;97061.00;5053736;28;20056;-79
2021/01/24 04:24:46;;;;;;;5.40;3.03;;;;;;;0.49;77.12;97053.97;5054585;28;20044;-79
2021/01/24 04:27:12;;;;;;;2.40;2.20;;;;;;;0.51;76.85;97067.16;5054891;28;20052;-79
2021/01/24 04:29:40;;;;;;;4.47;2.73;;;;;;;0.42;77.34;97069.06;5054738;28;20099;-79
2021/01/24 04:32:06;;;;;;;2.97;2.67;;;;;;;0.40;75.71;97070.22;5055128;28;20049;-78
2021/01/24 04:34:32;;;;;;;4.23;2.93;;;;;;;0.43;76.34;97081.41;5054845;28;20427;-79
2021/01/24 04:36:59;;;;;;;8.00;2.53;;;;;;;0.42;75.76;97081.56;5054898;28;20060;-80
2021/01/24 04:39:25;;;;;;;3.00;2.20;;;;;;;0.30;76.29;97063.25;5054728;28;20041;-78
2021/01/24 04:41:52;;;;;;;4.60;1.93;;;;;;;0.27;75.81;97078.78;5055020;28;20045;-79
2021/01/24 04:44:18;;;;;;;2.37;2.10;;;;;;;0.07;76.79;97056.97;5054461;28;20045;-79
2021/01/24 04:46:47;;;;;;;2.53;2.10;;;;;;;0.21;76.41;97091.00;5054689;28;20049;-80
2021/01/24 04:49:14;;;;;;;6.50;2.77;;;;;;;0.15;76.35;97076.47;5054727;28;20061;-79
2021/01/24 04:51:40;;;;;;;2.30;2.10;;;;;;;0.10;76.02;97078.81;5054444;28;20076;-79
2021/01/24 04:54:07;;;;;;;7.63;2.87;;;;;;;0.16;75.63;97088.00;5054371;28;20051;-79
2021/01/24 04:56:37;;;;;;;8.03;2.50;;;;;;;0.17;76.57;97097.69;5054423;28;20057;-79
2021/01/24 04:59:04;;;;;;;3.77;2.43;;;;;;;0.25;75.27;97107.53;5054475;28;20092;-80
2021/01/24 05:01:32;;;;;;;2.63;1.73;;;;;;;0.02;75.20;97072.66;5054552;28;20060;-79
2021/01/24 05:04:00;;;;;;;1.53;1.43;;;;;;;-0.07;75.39;97072.66;5054005;28;20045;-79
2021/01/24 05:06:26;;;;;;;2.33;1.93;;;;;;;0.02;75.99;97083.34;5053869;28;20730;-79
2021/01/24 05:08:53;;;;;;;6.17;3.00;;;;;;;0.06;76.23;97087.34;5054192;28;20052;-79
2021/01/24 05:11:21;;;;;;;3.27;2.13;;;;;;;0.20;74.11;97099.16;5053980;28;20040;-79
2021/01/24 05:13:47;;;;;;;4.10;1.93;;;;;;;0.18;74.72;97096.66;5054348;28;20106;-79
2021/01/24 05:16:13;;;;;;;5.90;2.57;;;;;;;0.17;73.78;97106.53;5053709;28;20056;-78
2021/01/24 05:18:40;;;;;;;3.33;2.47;;;;;;;0.09;74.68;97095.00;5054580;28;20163;-78
2021/01/24 05:21:09;;;;;;;3.30;2.37;;;;;;;-0.05;75.17;97076.00;5053956;28;21895;-78
2021/01/24 05:23:37;;;;;;;3.20;1.90;;;;;;;-0.10;75.35;97056.97;5054089;28;20081;-79
2021/01/24 05:26:08;;;;;;;2.57;1.93;;;;;;;0.03;74.03;97087.69;5053851;28;20091;-79
2021/01/24 05:28:45;;;;;;;3.13;2.67;;;;;;;-0.04;72.86;97071.50;5054124;28;20671;-79
2021/01/24 05:31:11;;;;;;;3.57;2.23;;;;;;;0.12;72.86;97102.69;5053705;28;20045;-79
2021/01/24 05:33:43;;;;;;;4.47;2.87;;;;;;;0.06;73.81;97093.53;5053162;28;20094;-78
2021/01/24 05:36:10;;;;;;;4.20;2.23;;;;;;;-0.03;72.41;97099.88;5053551;28;20052;-78
2021/01/24 05:38:37;;;;;;;4.03;1.87;;;;;;;0.01;73.29;97117.22;5053873;28;20064;-78
2021/01/24 05:41:06;;;;;;;4.23;1.83;;;;;;;-0.08;71.20;97111.06;5053741;28;20053;-79
2021/01/24 05:43:35;;;;;;;3.67;1.97;;;;;;;-0.16;72.41;97103.06;5053477;28;20049;-78
2021/01/24 05:46:02;;;;;;;2.47;2.00;;;;;;;-0.13;72.58;97129.44;5053261;28;20155;-78
2021/01/24 05:48:28;;;;;;;2.90;1.60;;;;;;;-0.05;71.40;97145.44;5053362;28;20493;-79
2021/01/24 05:50:56;;;;;;;4.83;2.00;;;;;;;-0.19;71.72;97144.28;5053266;28;20060;-79
2021/01/24 05:53:23;;;;;;;4.53;2.20;;;;;;;-0.37;71.42;97128.41;5053758;28;20057;-79
2021/01/24 05:55:50;;;;;;;6.20;2.27;;;;;;;-0.19;70.92;97154.97;5053197;28;20084;-80
2021/01/24 05:58:21;;;;;;;8.53;2.83;;;;;;;-0.16;70.03;97166.34;5053401;28;20048;-79
2021/01/24 06:00:50;;;;;;;2.50;2.03;;;;;;;-0.32;70.78;97151.13;5053189;28;20048;-79
2021/01/24 06:03:18;;;;;;;3.30;1.83;;;;;;;-0.20;69.90;97173.81;5053165;28;20045;-78
2021/01/24 06:05:47;;;;;;;2.30;2.10;;;;;;;-0.21;69.28;97177.50;5052946;28;20060;-78
2021/01/24 06:08:15;;;;;;;3.47;2.30;;;;;;;-0.21;70.19;97189.03;5053450;28;20412;-79
2021/01/24 06:10:43;;;;;;;2.60;1.70;;;;;;;-0.37;70.17;97157.78;5053100;28;20391;-78
2021/01/24 06:13:15;;;;;;;7.53;2.50;;;;;;;-0.27;71.12;97187.03;5052719;28;20055;-79
2021/01/24 06:15:43;;;;;;;7.67;3.30;;;;;;;-0.38;72.28;97184.66;5052532;28;20049;-79
2021/01/24 06:18:14;;;;;;;4.17;3.03;;;;;;;-0.39;71.77;97202.53;5052559;28;20045;-80
2021/01/24 06:20:45;;;;;;;3.77;2.97;;;;;;;-0.45;70.45;97172.94;5052120;28;20448;-79
2021/01/24 06:23:17;;;;;;;6.07;3.30;;;;;;;-0.49;71.22;97180.47;5052362;28;20095;-80
2021/01/24 06:25:47;;;;;;;4.37;2.70;;;;;;;-0.42;72.35;97202.84;5051970;28;20099;-79
2021/01/24 06:28:19;;;;;;;3.87;2.30;;;;;;;-0.49;72.15;97190.31;5053363;28;20037;-79
2021/01/24 06:30:46;;;;;;;4.43;2.73;;;;;;;-0.45;72.79;97203.19;5052289;28;20623;-80
2021/01/24 06:33:14;;;;;;;9.10;2.60;;;;;;;-0.61;72.31;97168.44;5052866;28;20098;-79
2021/01/24 06:35:44;;;;;;;5.73;3.27;;;;;;;-0.51;72.95;97198.50;5052225;28;20045;-80
2021/01/24 06:38:11;;;;;;;7.60;2.37;;;;;;;-0.64;72.74;97180.25;5052379;28;20107;-78
2021/01/24 06:40:43;;;;;;;4.50;2.60;;;;;;;-0.56;72.24;97206.13;5052656;28;20067;-79
2021/01/24 06:43:10;;;;;;;6.43;2.90;;;;;;;-0.61;72.84;97209.28;5032944;28;20049;-80
2021/01/24 06:45:41;;;;;;;4.97;2.80;;;;;;;-0.64;72.76;97204.28;5033395;28;20060;-80
2021/01/24 06:48:08;;;;;;;5.03;2.70;;;;;;;-0.55;72.60;97235.34;5036788;28;20045;-79
2021/01/24 06:50:37;;;;;;;1.90;1.73;;;;;;;-0.53;70.00;97221.81;5036802;28;20064;-78
2021/01/24 06:53:06;;;;;;;4.23;2.63;;;;;;;-0.65;71.14;97212.44;5050800;28;20052;-79
2021/01/24 06:55:33;;;;;;;7.87;3.87;;;;;;;-0.60;71.85;97212.81;5056810;28;20076;-80
2021/01/24 06:58:27;;;;;;;3.03;1.97;;;;;;;-0.51;71.53;97233.19;5056434;28;20049;-80
2021/01/24 07:01:24;;;;;;;2.20;2.00;;;;;;;-0.62;70.27;97230.81;5056510;28;20062;-80
2021/01/24 07:04:23;;;;;;;4.27;1.93;;;;;;;-0.37;69.04;97256.56;5056083;28;20045;-79
2021/01/24 07:06:51;;;;;;;2.35;2.15;;;;;;;-0.43;69.68;97257.22;5036698;28;20056;-80
2021/01/24 07:09:40;;;;;;;2.40;2.20;;;;;;;-0.33;69.64;97267.78;5054947;28;20102;-78
2021/01/24 07:12:07;;;;;;;4.03;2.03;;;;;;;-0.31;67.95;97270.28;5055711;28;20449;-79
2021/01/24 07:14:51;;;;;;;2.10;1.70;;;;;;;-0.31;67.70;97264.97;5055564;28;20045;-79
2021/01/24 07:17:19;;;;;;;8.07;2.07;;;;;;;-0.32;70.56;97264.09;5055729;28;20057;-80
2021/01/24 07:19:48;;;;;;;3.93;2.10;;;;;;;-0.41;69.13;97247.22;5055463;28;20052;-80
2021/01/24 07:22:16;;;;;;;2.17;1.90;;;;;;;-0.28;68.19;97275.31;5055410;28;20053;-80
2021/01/24 07:24:44;;;;;;;2.10;1.90;;;;;;;-0.34;70.36;97263.44;5054981;28;20045;-80
2021/01/24 07:27:11;;;;;;;4.70;1.80;;;;;;;-0.36;69.62;97268.13;5055606;28;20056;-79
2021/01/24 07:29:39;;;;;;;1.87;1.73;;;;;;;-0.40;68.63;97262.25;5055320;28;20056;-80
2021/01/24 07:32:10;;;;;;;2.80;1.93;;;;;;;-0.25;68.54;97266.97;5055526;28;20056;-79
2021/01/24 07:34:37;;;;;;;2.40;1.73;;;;;;;-0.11;69.15;97281.53;5055112;28;20535;-79
2021/01/24 07:37:05;;;;;;;2.13;1.73;;;;;;;-0.17;68.86;97275.00;5055583;28;20489;-80
2021/01/24 07:39:33;;;;;;;3.17;1.80;;;;;;;-0.29;68.45;97257.59;5055098;28;20041;-79
2021/01/24 07:41:59;;;;;;;1.93;1.77;;;;;;;-0.29;69.21;97252.25;5055373;28;20459;-79
2021/01/24 07:44:26;;;;;;;1.90;1.33;;;;;;;-0.08;68.86;97290.03;5054712;28;20056;-80
2021/01/24 07:46:52;;;;;;;7.73;1.97;;;;;;;-0.03;68.82;97297.56;5054916;28;20144;-79
2021/01/24 07:49:20;;;;;;;5.73;2.07;;;;;;;-0.10;69.50;97286.69;5055077;28;20563;-80
2021/01/24 07:51:47;;;;;;;3.60;1.80;;;;;;;-0.05;69.16;97295.03;5055125;28;20099;-79
2021/01/24 07:54:14;;;;;;;2.47;1.70;;;;;;;-0.15;69.08;97262.31;5055542;28;20053;-80
2021/01/24 07:56:41;;;;;;;2.23;2.00;;;;;;;-0.16;70.27;97282.00;5054706;28;20049;-79
2021/01/24 07:59:08;;;;;;;2.40;1.67;;;;;;;-0.10;69.08;97301.91;5055395;28;20536;-80
2021/01/24 08:01:35;;;;;;;2.57;2.13;;;;;;;-0.21;69.41;97282.50;5055505;28;20067;-79
2021/01/24 08:04:03;;;;;;;3.00;1.93;;;;;;;-0.01;69.63;97320.44;5055225;28;20127;-81
2021/01/24 08:06:31;;;;;;;9.80;2.23;;;;;;;-0.21;70.13;97297.66;5055152;28;20076;-80
2021/01/24 08:09:04;;;;;;;2.73;1.77;;;;;;;-0.02;69.89;97324.09;5035440;28;20160;-80
2021/01/24 08:11:30;;;;;;;5.90;2.07;;;;;;;-0.13;70.27;97310.25;5035413;28;20061;-78
2021/01/24 08:13:56;;;;;;;6.30;2.20;;;;;;;-0.01;70.39;97317.78;5035398;28;20053;-78
2021/01/24 08:16:26;;;;;;;3.40;2.40;;;;;;;-0.11;70.24;97308.22;5042300;28;20056;-78
2021/01/24 08:18:55;;;;;;;2.63;1.98;;;;;;;0.04;70.23;97319.13;5041884;28;20537;-78
2021/01/24 08:21:22;;;;;;;5.87;2.40;;;;;;;0.06;70.18;97336.69;5035669;28;20107;-82
2021/01/24 08:23:52;;;;;;;1.83;1.73;;;;;;;0.11;69.55;97329.00;5047547;28;20045;-80
2021/01/24 08:26:21;;;;;;;2.33;1.77;;;;;;;-0.03;70.25;97309.09;5055044;28;20394;-80
2021/01/24 08:28:48;;;;;;;3.00;2.27;;;;;;;0.19;70.68;97336.19;5055011;28;20052;-81
2021/01/24 08:31:18;;;;;;;4.63;2.17;;;;;;;0.11;70.40;97307.63;5054771;28;20061;-80
2021/01/24 08:33:45;;;;;;;11.57;3.13;;;;;;;0.30;69.62;97327.00;5039014;28;20209;-81
2021/01/24 08:36:17;;;;;;;3.30;2.33;;;;;;;0.15;69.83;97314.31;5054834;28;20049;-81
2021/01/24 08:39:04;;;;;;;2.50;1.90;;;;;;;0.31;69.20;97342.88;5054825;28;20049;-79
2021/01/24 08:41:31;;;;;;;5.73;3.10;;;;;;;0.25;70.24;97342.72;5054352;28;20485;-80
2021/01/24 08:44:06;;;;;;;4.43;1.90;;;;;;;0.14;69.52;97325.16;5054652;28;20045;-80
2021/01/24 08:46:38;;;;;;;5.70;2.77;;;;;;;0.15;69.95;97327.66;5054657;28;20057;-79
2021/01/24 08:49:07;;;;;;;3.70;2.20;;;;;;;0.11;70.63;97325.50;5054580;28;20451;-79
2021/01/24 08:51:48;;;;;;;6.47;2.42;;;;;;;0.23;73.61;97368.78;5053972;28;20071;-80
2021/01/24 08:54:26;;;;;;;4.97;2.63;;;;;;;0.02;74.37;97363.88;5054483;28;20044;-80
2021/01/24 08:57:07;;;;;;;2.33;1.83;;;;;;;-0.02;75.60;97380.22;5049428;28;20049;-81
2021/01/24 08:59:34;;;;;;;7.63;2.20;;;;;;;-0.10;76.69;97374.03;5054744;28;20405;-79
2021/01/24 09:02:03;;;;;;;4.37;2.17;;;;;;;-0.07;77.55;97403.91;5054118;28;20493;-80
2021/01/24 09:04:33;;;;;;;3.53;2.30;;;;;;;-0.37;78.76;97357.22;5053919;28;20041;-80
2021/01/24 09:07:08;;;;;;;4.78;2.33;;;;;;;-0.23;78.79;97401.16;5054120;28;20287;-79
2021/01/24 09:09:39;;;;;;;5.17;2.60;;;;;;;-0.27;80.33;97411.34;5053862;28;20107;-80
2021/01/24 09:12:06;;;;;;;4.17;2.50;;;;;;;-0.54;80.20;97377.66;5053876;28;20485;-80
2021/01/24 09:14:33;;;;;;;5.30;3.10;;;;;;;-0.43;81.35;97393.38;5053830;28;20063;-80
2021/01/24 09:17:11;;;;;;;3.70;2.63;;;;;;;-0.20;81.20;97411.53;5054237;28;20048;-80
2021/01/24 09:19:39;;;;;;;6.43;3.23;;;;;;;-0.29;81.54;97413.31;5054075;28;20102;-80
2021/01/24 09:22:07;;;;;;;4.20;3.20;;;;;;;-0.31;82.20;97387.78;5054184;28;20053;-80
2021/01/24 09:24:36;;;;;;;6.80;3.03;;;;;;;-0.22;82.79;97403.69;5053343;28;20132;-80
2021/01/24 09:27:05;;;;;;;4.28;2.67;;;;;;;-0.28;82.83;97419.50;5053854;28;20053;-80
2021/01/24 09:29:31;;;;;;;5.03;2.80;;;;;;;-0.26;82.76;97407.66;5053666;28;20045;-79
2021/01/24 09:31:58;;;;;;;4.60;2.90;;;;;;;-0.33;82.88;97403.97;5053565;28;20058;-80
2021/01/24 09:34:24;;;;;;;4.37;2.80;;;;;;;-0.43;82.93;97406.75;5053739;28;20057;-80
2021/01/24 09:36:51;;;;;;;3.03;2.53;;;;;;;-0.32;82.87;97426.16;5053812;28;20103;-80
2021/01/24 09:39:17;;;;;;;5.03;3.40;;;;;;;-0.52;83.16;97391.69;5053725;28;20489;-80
2021/01/24 09:41:45;;;;;;;3.23;2.43;;;;;;;-0.28;83.88;97419.50;5054102;28;20057;-80
2021/01/24 09:44:24;;;;;;;3.00;1.83;;;;;;;-0.44;84.22;97429.09;5053501;28;20053;-79
2021/01/24 09:46:52;;;;;;;2.72;2.20;;;;;;;-0.41;84.93;97434.09;5053541;28;20041;-80
2021/01/24 09:49:18;;;;;;;4.67;3.37;;;;;;;-0.48;84.96;97406.41;5053740;28;20052;-78
2021/01/24 09:51:44;;;;;;;8.63;2.67;;;;;;;-0.67;85.14;97390.59;5052867;28;20052;-79
2021/01/24 09:54:14;;;;;;;4.63;3.27;;;;;;;-0.37;85.49;97442.66;5053421;28;20080;-80
2021/01/24 09:56:41;;;;;;;5.53;3.53;;;;;;;-0.51;85.99;97416.53;5053157;28;20056;-80
2021/01/24 09:59:08;;;;;;;4.93;3.37;;;;;;;-0.41;86.56;97425.28;5052845;28;20053;-79
2021/01/24 10:01:53;;;;;;;8.97;3.37;;;;;;;-0.28;85.12;97443.56;5052685;28;20053;-79
2021/01/24 10:04:20;;;;;;;9.37;3.90;;;;;;;-0.32;85.97;97445.69;5052341;28;20717;-80
2021/01/24 10:06:46;;;;;;;5.40;3.37;;;;;;;-0.28;85.75;97438.22;5052570;28;20175;-80
2021/01/24 10:09:13;;;;;;;4.53;2.60;;;;;;;-0.31;85.22;97433.19;5052848;28;20044;-80
2021/01/24 10:11:39;;;;;;;7.30;3.83;;;;;;;-0.25;84.58;97438.72;5052725;28;20045;-79
2021/01/24 10:14:05;;;;;;;10.30;4.50;;;;;;;-0.10;84.78;97449.66;5051878;28;20059;-79
2021/01/24 10:16:33;;;;;;;3.60;2.73;;;;;;;-0.12;83.63;97451.66;5052539;28;20056;-79
2021/01/24 10:18:59;;;;;;;4.10;3.20;;;;;;;-0.23;83.56;97433.22;5052769;28;20048;-80
2021/01/24 10:21:25;;;;;;;3.73;2.50;;;;;;;-0.32;83.03;97423.50;5057446;28;20049;-79
2021/01/24 10:23:52;;;;;;;4.57;3.10;;;;;;;-0.21;82.98;97436.56;5057107;28;20049;-80
2021/01/24 10:26:19;;;;;;;5.13;3.33;;;;;;;-0.12;83.76;97427.59;5057043;28;20481;-79
2021/01/24 10:28:45;;;;;;;5.67;2.70;;;;;;;0.03;83.60;97456.38;5057255;28;20523;-79
2021/01/24 10:31:11;;;;;;;3.00;2.70;;;;;;;-0.15;83.20;97443.97;5056950;28;20040;-79
2021/01/24 10:33:38;;;;;;;6.27;3.57;;;;;;;0.10;83.80;97455.56;5057083;28;20051;-80
2021/01/24 10:36:05;;;;;;;6.77;3.50;;;;;;;0.11;84.82;97456.44;5056676;28;20532;-80
2021/01/24 10:38:32;;;;;;;3.80;2.30;;;;;;;-0.03;83.63;97456.03;5056671;28;20052;-80
2021/01/24 10:40:58;;;;;;;5.30;2.83;;;;;;;0.10;84.86;97466.25;5056758;28;20474;-79
2021/01/24 10:43:24;;;;;;;7.10;3.90;;;;;;;-0.06;85.05;97460.84;5038985;28;20049;-79
2021/01/24 10:45:52;;;;;;;3.60;2.80;;;;;;;-0.22;83.93;97434.91;5036620;28;20056;-80
2021/01/24 10:48:18;;;;;;;4.63;2.87;;;;;;;-0.13;84.38;97449.97;5036964;28;20128;-78
2021/01/24 10:50:45;;;;;;;12.33;3.33;;;;;;;0.02;84.74;97476.09;5047682;28;20213;-79
2021/01/24 10:53:39;;;;;;;7.90;3.57;;;;;;;0.11;85.44;97465.28;5055964;28;20045;-80
2021/01/24 10:56:06;;;;;;;4.93;2.67;;;;;;;0.10;82.96;97457.41;5055546;28;20044;-79
2021/01/24 10:58:32;;;;;;;3.57;2.60;;;;;;;0.23;82.91;97475.69;5055892;28;20057;-79
2021/01/24 11:00:58;;;;;;;4.63;2.40;;;;;;;0.23;81.64;97462.31;5055607;28;20048;-80
2021/01/24 11:03:25;;;;;;;10.03;3.33;;;;;;;0.29;82.54;97462.50;5056314;28;20057;-80
2021/01/24 11:05:52;;;;;;;6.23;2.90;;;;;;;0.37;80.88;97452.84;5055655;28;20071;-80
2021/01/24 11:08:18;;;;;;;3.87;2.53;;;;;;;0.34;79.62;97438.78;5055947;28;20071;-80
2021/01/24 11:10:45;;;;;;;3.43;2.53;;;;;;;0.39;77.54;97438.28;5056004;28;20056;-80
2021/01/24 11:13:13;;;;;;;4.33;2.60;;;;;;;0.67;77.60;97467.47;5055770;28;20056;-80
2021/01/24 11:15:40;;;;;;;4.83;2.60;;;;;;;0.56;76.03;97447.22;5055391;28;20127;-80
2021/01/24 11:18:06;;;;;;;5.77;2.87;;;;;;;0.60;76.27;97453.88;5055993;28;20052;-79
2021/01/24 11:20:33;;;;;;;2.20;2.00;;;;;;;0.51;74.76;97450.38;5056359;28;20060;-79
2021/01/24 11:23:00;;;;;;;4.57;2.50;;;;;;;0.62;74.66;97457.25;5056015;28;20526;-78
2021/01/24 11:25:26;;;;;;;3.03;2.27;;;;;;;0.68;75.30;97456.59;5055094;28;20636;-79
2021/01/24 11:27:53;;;;;;;3.47;2.43;;;;;;;0.67;74.03;97454.09;5055201;28;20107;-79
2021/01/24 11:30:20;;;;;;;2.33;1.60;;;;;;;0.57;75.29;97459.56;5055007;28;20056;-79
2021/01/24 11:32:46;;;;;;;6.90;2.80;;;;;;;0.58;75.24;97455.06;5054401;28;20095;-79
2021/01/24 11:35:15;;;;;;;7.73;3.07;;;;;;;0.53;74.28;97472.44;5054248;28;20048;-78
2021/01/24 11:37:43;;;;;;;5.70;2.90;;;;;;;0.58;75.36;97471.94;5056102;28;20401;-80
2021/01/24 11:40:12;;;;;;;3.50;2.40;;;;;;;0.66;75.83;97484.50;5055610;28;20045;-80
2021/01/24 11:42:40;;;;;;;4.03;2.20;;;;;;;0.51;75.54;97460.22;5054805;28;20075;-80
2021/01/24 11:45:07;;;;;;;3.07;2.00;;;;;;;0.48;75.92;97490.81;5054933;28;20141;-78